Time,TemperatureF,DewpointF,PressureIn,WindDirection,WindDirectionDegrees,WindSpeedMPH,WindSpeedGustMPH,Humidity,HourlyPrecipIn,Conditions,Clouds,dailyrainin,SolarRadiationWatts/m^2,SoftwareType,DateUTC
2013-12-10 00:01:00,34.0,34.0,-100.00,West,280,2.0,8.0,98,0.00,,,0.48,0.000000,,2013-12-10 05:01:00,
2013-12-10 00:22:00,34.0,34.0,-100.00,West,280,2.0,8.0,98,0.00,,,0.48,0.000000,,2013-12-10 05:22:00,
2013-12-10 00:33:00,34.0,34.0,-100.00,West,280,2.0,8.0,98,0.00,,,0.48,0.000000,,2013-12-10 05:33:00,
2013-12-10 00:43:00,34.0,34.0,-100.00,West,280,2.0,8.0,98,0.00,,,0.48,0.000000,,2013-12-10 05:43:00,
2013-12-10 00:53:00,34.0,34.0,-100.00,West,280,2.0,8.0,98,0.00,,,0.48,0.000000,,2013-12-10 05:53:00,
2013-12-10 01:01:00,33.0,32.0,-100.00,WNW,291,1.0,7.0,98,0.00,,,0.48,0.000000,,2013-12-10 06:01:00,
2013-12-10 01:22:00,33.0,32.0,-100.00,WNW,291,1.0,7.0,98,0.00,,,0.48,0.000000,,2013-12-10 06:22:00,
2013-12-10 01:32:00,33.0,32.0,-100.00,WNW,291,1.0,7.0,98,0.00,,,0.48,0.000000,,2013-12-10 06:32:00,
2013-12-10 01:42:00,33.0,32.0,-100.00,WNW,291,1.0,7.0,98,0.00,,,0.48,0.000000,,2013-12-10 06:42:00,
2013-12-10 01:53:00,33.0,32.0,-100.00,WNW,291,1.0,7.0,98,0.00,,,0.48,0.000000,,2013-12-10 06:53:00,
2013-12-10 02:01:00,33.0,32.0,-100.00,WNW,288,2.0,6.0,98,0.00,,,0.48,0.000000,,2013-12-10 07:01:00,
2013-12-10 02:22:00,33.0,32.0,-100.00,WNW,288,2.0,6.0,98,0.00,,,0.48,0.000000,,2013-12-10 07:22:00,
2013-12-10 02:33:00,33.0,32.0,-100.00,WNW,288,2.0,6.0,98,0.00,,,0.48,0.000000,,2013-12-10 07:33:00,
2013-12-10 02:42:00,33.0,32.0,-100.00,WNW,288,2.0,6.0,98,0.00,,,0.48,0.000000,,2013-12-10 07:42:00,
2013-12-10 02:52:00,33.0,32.0,-100.00,WNW,288,2.0,6.0,98,0.00,,,0.48,0.000000,,2013-12-10 07:52:00,
2013-12-10 03:01:00,32.0,32.0,-100.00,WNW,297,2.0,7.0,98,0.00,,,0.48,0.000000,,2013-12-10 08:01:00,
2013-12-10 03:42:00,32.0,32.0,-100.00,WNW,297,2.0,7.0,98,0.00,,,0.48,0.000000,,2013-12-10 08:42:00,
2013-12-10 03:52:00,32.0,32.0,-100.00,WNW,297,2.0,7.0,98,0.00,,,0.48,0.000000,,2013-12-10 08:52:00,
2013-12-10 04:01:00,33.0,32.0,-100.00,WNW,285,2.0,8.0,98,0.00,,,0.48,0.000000,,2013-12-10 09:01:00,
2013-12-10 04:44:00,33.0,32.0,-100.00,WNW,285,2.0,8.0,98,0.00,,,0.48,0.000000,,2013-12-10 09:44:00,
2013-12-10 04:54:00,33.0,32.0,-100.00,WNW,285,2.0,8.0,98,0.00,,,0.48,0.000000,,2013-12-10 09:54:00,
2013-12-10 05:01:00,33.0,32.0,-100.00,WNW,295,2.0,7.0,97,0.00,,,0.48,0.000000,,2013-12-10 10:01:00,
2013-12-10 05:43:00,33.0,32.0,-100.00,WNW,295,2.0,7.0,97,0.00,,,0.48,0.000000,,2013-12-10 10:43:00,
2013-12-10 05:53:00,33.0,32.0,-100.00,WNW,295,2.0,7.0,97,0.00,,,0.48,0.000000,,2013-12-10 10:53:00,
2013-12-10 06:01:00,33.0,32.0,-100.00,NW,315,1.0,7.0,97,0.00,,,0.47,0.000000,,2013-12-10 11:01:00,
2013-12-10 06:43:00,33.0,32.0,-100.00,NW,315,1.0,7.0,97,0.00,,,0.47,0.000000,,2013-12-10 11:43:00,
2013-12-10 06:53:00,33.0,32.0,-100.00,NW,315,1.0,7.0,97,0.00,,,0.47,0.000000,,2013-12-10 11:53:00,
2013-12-10 10:01:00,34.0,32.0,-100.00,North,-999,0.0,9.0,94,-99.99,,,0.09,7.000000,,2013-12-10 15:01:00,
2013-12-10 10:44:00,34.0,32.0,-100.00,North,-999,0.0,9.0,94,-99.99,,,0.09,7.000000,,2013-12-10 15:44:00,
2013-12-10 10:53:00,34.0,32.0,-100.00,North,-999,0.0,9.0,94,-99.99,,,0.09,7.000000,,2013-12-10 15:53:00,
2013-12-10 11:01:00,33.0,32.0,-100.00,North,-999,0.0,3.0,97,0.00,,,0.07,11.000000,,2013-12-10 16:01:00,
2013-12-10 11:23:00,33.0,32.0,-100.00,North,-999,0.0,3.0,97,0.00,,,0.07,11.000000,,2013-12-10 16:23:00,
2013-12-10 11:33:00,33.0,32.0,-100.00,North,-999,0.0,3.0,97,0.00,,,0.07,11.000000,,2013-12-10 16:33:00,
2013-12-10 11:43:00,33.0,32.0,-100.00,North,-999,0.0,3.0,97,0.00,,,0.07,11.000000,,2013-12-10 16:43:00,
2013-12-10 11:53:00,33.0,32.0,-100.00,North,-999,0.0,3.0,97,0.00,,,0.07,11.000000,,2013-12-10 16:53:00,
2013-12-10 12:01:00,34.0,33.0,-100.00,North,-999,0.0,3.0,97,0.04,,,0.09,21.000000,,2013-12-10 17:01:00,
2013-12-10 12:43:00,34.0,33.0,-100.00,North,-999,0.0,3.0,97,0.04,,,0.09,21.000000,,2013-12-10 17:43:00,
2013-12-10 12:52:00,34.0,33.0,-100.00,North,-999,0.0,3.0,97,0.04,,,0.09,21.000000,,2013-12-10 17:52:00,
2013-12-10 13:01:00,33.0,32.0,-100.00,NW,304,1.0,6.0,97,0.04,,,0.12,19.000000,,2013-12-10 18:01:00,
2013-12-10 13:42:00,33.0,32.0,-100.00,NW,304,1.0,6.0,97,0.04,,,0.12,19.000000,,2013-12-10 18:42:00,
2013-12-10 13:53:00,33.0,32.0,-100.00,NW,304,1.0,6.0,97,0.04,,,0.12,19.000000,,2013-12-10 18:53:00,
2013-12-10 14:01:00,33.0,32.0,-100.00,NW,320,2.0,9.0,97,0.02,,,0.14,17.000000,,2013-12-10 19:01:00,
2013-12-10 14:22:00,33.0,32.0,-100.00,NW,320,2.0,9.0,97,0.02,,,0.14,17.000000,,2013-12-10 19:22:00,
2013-12-10 14:32:00,33.0,32.0,-100.00,NW,320,2.0,9.0,97,0.02,,,0.14,17.000000,,2013-12-10 19:32:00,
2013-12-10 14:42:00,33.0,32.0,-100.00,NW,320,2.0,9.0,97,0.02,,,0.14,17.000000,,2013-12-10 19:42:00,
2013-12-10 14:52:00,33.0,32.0,-100.00,NW,320,2.0,9.0,97,0.02,,,0.14,17.000000,,2013-12-10 19:52:00,
2013-12-10 15:01:00,33.0,32.0,-100.00,NW,315,2.0,9.0,96,0.01,,,0.15,15.000000,,2013-12-10 20:01:00,
2013-12-10 15:42:00,33.0,32.0,-100.00,NW,315,2.0,9.0,96,0.01,,,0.15,15.000000,,2013-12-10 20:42:00,
2013-12-10 15:53:00,33.0,32.0,-100.00,NW,315,2.0,9.0,96,0.01,,,0.15,15.000000,,2013-12-10 20:53:00,
2013-12-10 16:01:00,32.0,30.0,-100.00,NW,309,1.0,11.0,94,0.01,,,0.15,9.000000,,2013-12-10 21:01:00,
2013-12-10 16:43:00,32.0,30.0,-100.00,NW,309,1.0,11.0,94,0.01,,,0.15,9.000000,,2013-12-10 21:43:00,
2013-12-10 16:54:00,32.0,30.0,-100.00,NW,309,1.0,11.0,94,0.01,,,0.15,9.000000,,2013-12-10 21:54:00,
2013-12-10 17:01:00,32.0,31.0,-100.00,WNW,293,1.0,10.0,95,0.00,,,0.15,1.000000,,2013-12-10 22:01:00,
2013-12-10 17:43:00,32.0,31.0,-100.00,WNW,293,1.0,10.0,95,0.00,,,0.15,1.000000,,2013-12-10 22:43:00,
2013-12-10 17:53:00,32.0,31.0,-100.00,WNW,293,1.0,10.0,95,0.00,,,0.15,1.000000,,2013-12-10 22:53:00,
2013-12-10 18:01:00,31.0,30.0,-100.00,WNW,299,2.0,7.0,96,0.00,,,0.15,0.000000,,2013-12-10 23:01:00,
2013-12-10 18:43:00,31.0,30.0,-100.00,WNW,299,2.0,7.0,96,0.00,,,0.15,0.000000,,2013-12-10 23:43:00,
2013-12-10 18:53:00,31.0,30.0,-100.00,WNW,299,2.0,7.0,96,0.00,,,0.15,0.000000,,2013-12-10 23:53:00,
2013-12-10 19:01:00,30.0,27.0,-100.00,WNW,301,3.0,9.0,90,0.00,,,0.15,0.000000,,2013-12-11 00:01:00,
2013-12-10 19:23:00,30.0,27.0,-100.00,WNW,301,3.0,9.0,90,0.00,,,0.15,0.000000,,2013-12-11 00:23:00,
2013-12-10 19:32:00,30.0,27.0,-100.00,WNW,301,3.0,9.0,90,0.00,,,0.15,0.000000,,2013-12-11 00:32:00,
2013-12-10 19:42:00,30.0,27.0,-100.00,WNW,301,3.0,9.0,90,0.00,,,0.15,0.000000,,2013-12-11 00:42:00,
2013-12-10 19:52:00,30.0,27.0,-100.00,WNW,301,3.0,9.0,90,0.00,,,0.15,0.000000,,2013-12-11 00:52:00,
2013-12-10 20:01:00,29.0,23.0,-100.00,NW,304,3.0,13.0,78,0.00,,,0.15,0.000000,,2013-12-11 01:01:00,
2013-12-10 20:42:00,29.0,23.0,-100.00,NW,304,3.0,13.0,78,0.00,,,0.15,0.000000,,2013-12-11 01:42:00,
2013-12-10 20:52:00,29.0,23.0,-100.00,NW,304,3.0,13.0,78,0.00,,,0.15,0.000000,,2013-12-11 01:52:00,
2013-12-10 21:01:00,27.0,24.0,-100.00,WNW,297,1.0,13.0,90,0.00,,,0.15,0.000000,,2013-12-11 02:01:00,
2013-12-10 21:42:00,27.0,24.0,-100.00,WNW,297,1.0,13.0,90,0.00,,,0.15,0.000000,,2013-12-11 02:42:00,
2013-12-10 21:52:00,27.0,24.0,-100.00,WNW,297,1.0,13.0,90,0.00,,,0.15,0.000000,,2013-12-11 02:52:00,
2013-12-10 22:01:00,28.0,24.0,-100.00,WNW,296,2.0,9.0,85,0.00,,,0.15,0.000000,,2013-12-11 03:01:00,
2013-12-10 22:43:00,28.0,24.0,-100.00,WNW,296,2.0,9.0,85,0.00,,,0.15,0.000000,,2013-12-11 03:43:00,
2013-12-10 22:54:00,28.0,24.0,-100.00,WNW,296,2.0,9.0,85,0.00,,,0.15,0.000000,,2013-12-11 03:54:00,
2013-12-10 23:01:00,27.0,23.0,-100.00,WNW,288,2.0,8.0,83,0.00,,,0.15,0.000000,,2013-12-11 04:01:00,
2013-12-10 23:43:00,27.0,23.0,-100.00,WNW,288,2.0,8.0,83,0.00,,,0.15,0.000000,,2013-12-11 04:43:00,
2013-12-10 23:53:00,27.0,23.0,-100.00,WNW,288,2.0,8.0,83,0.00,,,0.15,0.000000,,2013-12-11 04:53:00,